Kendricks Ferry, Louisiana
Current Conditions -  °F | °C
As of 7:55 PM on Thursday 18 Dec 2014 (Local Time) from KHEZ Reporting Station
Overcast Overcast  
Wind Chill: 50°   Ceiling: 300
Heat Index: 50°   Visibility: 3mi
Dew Point: 46°   Wind: 5mph
Humidity: 87%   Direction: 40°NE
Pressure: 30.16"   Gusts: NA
Location:  32.0246°N, 91.5666°W
Report Text: KHEZ 190155Z AUTO 04004KT 3SM OVC003 10/08 A3016 RMK AO1
Loading
Personal Weather Stations






























Interactive Weather Map New forecast layout! Learn more

10-Day Weather Forecast

Advertisements
Track Severe Weather on mobile